My Little Violet — ZCPE7 — position and weather

sailwx.info

Track history (hours):
 
Tides and Currents Weather Stations Pressure Air Temp Water Temp Dewpoint Dewpoint Depression Visibility Wind Speed Wind Dir Waves Ship Positions

My Little Violet

Last reported at 2015-Aug-01 07:34 UTC. Time now 2015-Aug-01 07:49 UTC.
Position N 43°18' E 006°39'.

Length 45 m.

Type: Pleasure craft. MMSI: 319496000.

Date/timePositionNaut miles runAvg speedWind from/ knotsBaromVisibWave heightAir tempDewpointWater temp
2015-Aug-01 07:34N 43°18' E 006°39'2 1.9
2015-Aug-01 06:30N 43°16' E 006°40'0 0.0
2015-Aug-01 05:33N 43°16' E 006°40'0 0.0
2015-Jul-31 04:33N 43°16' E 006°40'0 0.0
2015-Jul-31 03:34N 43°16' E 006°40'0 0.0
2015-Jul-31 02:33N 43°16' E 006°40'0 0.0
2015-Jul-31 01:33N 43°16' E 006°40'0 0.0
2015-Jul-31 00:33N 43°16' E 006°40'0 0.0
2015-Jul-30 23:33N 43°16' E 006°40'0 0.0
2015-Jul-30 22:33N 43°16' E 006°40'0 0.0
2015-Jul-30 21:33N 43°16' E 006°40'0 0.0
2015-Jul-30 20:33N 43°16' E 006°40'0 0.0
2015-Jul-30 19:34N 43°16' E 006°40'0 0.0
2015-Jul-30 18:34N 43°16' E 006°40'0 0.0
2015-Jul-30 17:33N 43°16' E 006°40'0 0.0
2015-Jul-30 16:33N 43°16' E 006°40'0 0.0
2015-Jul-30 15:33N 43°16' E 006°40'0 0.0
2015-Jul-30 14:33N 43°16' E 006°40'0 0.0
2015-Jul-30 13:33N 43°16' E 006°40'0 0.0
2015-Jul-30 12:33N 43°16' E 006°40'3 2.6
2015-Jul-30 11:33N 43°16' E 006°36'0 0.0
2015-Jul-30 10:33N 43°16' E 006°36'0 0.0
2015-Jul-30 09:33N 43°16' E 006°36'10 8.3
2015-Jul-30 08:19N 43°14' E 006°50'7 9.6
2015-Jul-30 07:33N 43°11' E 006°59'1111.2
2015-Jul-30 06:33N 43°16' E 006°45'6 5.9
2015-Jul-30 05:33N 43°17' E 006°37'0 0.0
2015-Jul-30 04:33N 43°17' E 006°37'0 0.0
2015-Jul-30 03:33N 43°17' E 006°37'0 0.0
2015-Jul-30 02:33N 43°17' E 006°37'0 0.0
2015-Jul-30 01:33N 43°17' E 006°37'0 0.0
2015-Jul-30 00:34N 43°17' E 006°37'0 0.0
2015-Jul-29 23:33N 43°17' E 006°37'0 0.0
2015-Jul-29 22:33N 43°17' E 006°37'0 0.0
2015-Jul-29 21:33N 43°17' E 006°37'0 0.0
2015-Jul-29 20:33N 43°17' E 006°37'0 0.0
2015-Jul-29 19:33N 43°17' E 006°37'0 0.0
2015-Jul-29 18:32N 43°17' E 006°37'0 0.0
2015-Jul-29 17:33N 43°17' E 006°37'0 0.0
2015-Jul-29 16:33N 43°17' E 006°37'0 0.0
2015-Jul-29 15:33N 43°17' E 006°37'0 0.0
2015-Jul-29 14:33N 43°17' E 006°37'0 0.0
2015-Jul-29 13:33N 43°17' E 006°37'0 0.0
2015-Jul-29 12:33N 43°17' E 006°37'0 0.0
2015-Jul-29 11:33N 43°17' E 006°37'0 0.0
2015-Jul-29 10:33N 43°17' E 006°37'0 0.0
2015-Jul-29 09:33N 43°17' E 006°37'0 0.0
2015-Jul-28 20:31N 43°17' E 006°37'0 0.0
2015-Jul-28 19:34N 43°17' E 006°37'4 3.6
2015-Jul-28 18:33N 43°17' E 006°42'4 3.7
2015-Jul-28 17:33N 43°14' E 006°40'0 0.0
2015-Jul-28 16:33N 43°14' E 006°40'0 0.0
2015-Jul-28 15:33N 43°14' E 006°40'0 0.0
2015-Jul-28 14:33N 43°14' E 006°40'0 0.0
2015-Jul-28 13:34N 43°14' E 006°40'0 0.0
2015-Jul-28 12:33N 43°14' E 006°40'3 2.8
2015-Jul-28 11:34N 43°15' E 006°43'5 5.2
2015-Jul-28 10:33N 43°16' E 006°36'0 0.0
2015-Jul-28 09:34N 43°16' E 006°36'0 0.0
2015-Jul-27 21:33N 43°16' E 006°36'0 0.0
2015-Jul-27 20:33N 43°16' E 006°36'0 0.0
2015-Jul-27 19:33N 43°16' E 006°36'0 0.0
2015-Jul-27 18:33N 43°16' E 006°36'0 0.0
2015-Jul-27 17:33N 43°16' E 006°36'0 0.0
2015-Jul-27 16:33N 43°16' E 006°36'0 0.0
2015-Jul-27 15:34N 43°16' E 006°36'0 0.0
2015-Jul-27 14:33N 43°16' E 006°36'0 0.0
2015-Jul-27 13:33N 43°16' E 006°36'0 0.0
2015-Jul-27 12:33N 43°16' E 006°36'0 0.0
2015-Jul-27 11:33N 43°16' E 006°36'1 1.0
2015-Jul-27 10:33N 43°16' E 006°37'0 0.1
2015-Jul-27 09:34N 43°16' E 006°37'0 0.0
2015-Jul-27 08:33N 43°16' E 006°37'0 0.0
2015-Jul-27 07:33N 43°16' E 006°37'0 0.0
2015-Jul-26 21:04N 43°16' E 006°37'0 0.0
2015-Jul-26 20:33N 43°16' E 006°37'0 0.0
2015-Jul-26 19:34N 43°16' E 006°37'0 0.0
2015-Jul-26 18:33N 43°16' E 006°37'0 0.0
2015-Jul-26 17:32N 43°16' E 006°37'0 0.0
2015-Jul-26 16:33N 43°16' E 006°37'0 0.0
2015-Jul-26 15:33N 43°16' E 006°37'0 0.0
2015-Jul-26 14:33N 43°16' E 006°37'0 0.1
2015-Jul-26 13:33N 43°16' E 006°37'0 0.0
2015-Jul-26 12:33N 43°16' E 006°37'1 1.0
2015-Jul-26 11:33N 43°16' E 006°36'0 0.0
2015-Jul-26 10:30N 43°16' E 006°36'0 0.0
2015-Jul-26 09:33N 43°16' E 006°36'0 0.0
2015-Jul-26 08:33N 43°16' E 006°36'0 0.0
2015-Jul-26 07:33N 43°16' E 006°36'0 0.0
2015-Jul-26 06:33N 43°16' E 006°36'0 0.0
2015-Jul-26 05:33N 43°16' E 006°36'0 0.0
2015-Jul-26 04:33N 43°16' E 006°36'0 0.0
2015-Jul-26 03:34N 43°16' E 006°36'0 0.0
2015-Jul-26 02:33N 43°16' E 006°36'0 0.0
2015-Jul-26 01:34N 43°16' E 006°36'0 0.0
2015-Jul-26 00:33N 43°16' E 006°36'0 0.0
2015-Jul-25 23:33N 43°16' E 006°36'0 0.0
2015-Jul-25 22:34N 43°16' E 006°36'1 1.1
2015-Jul-25 21:34N 43°17' E 006°37'0 0.0
2015-Jul-25 20:33N 43°17' E 006°37'0 0.0
2015-Jul-25 19:33N 43°17' E 006°37'1 1.1
2015-Jul-25 18:33N 43°16' E 006°36'0 0.0
2015-Jul-25 17:32N 43°16' E 006°36'0 0.0
2015-Jul-25 16:33N 43°16' E 006°36'0 0.0
2015-Jul-25 15:33N 43°16' E 006°36'0 0.0
2015-Jul-25 14:34N 43°16' E 006°36'0 0.0
2015-Jul-25 13:33N 43°16' E 006°36'1 0.7
2015-Jul-25 12:33N 43°16' E 006°37'0 0.0
2015-Jul-25 11:33N 43°16' E 006°37'0 0.0
2015-Jul-25 10:33N 43°16' E 006°37'0 0.0
2015-Jul-25 09:34N 43°16' E 006°37'0 0.0
2015-Jul-25 08:32N 43°16' E 006°37'0 0.0
2015-Jul-25 07:33N 43°16' E 006°37'0 0.0
2015-Jul-25 06:32N 43°16' E 006°37'0 0.0
2015-Jul-25 05:34N 43°16' E 006°37'0 0.0
2015-Jul-25 04:34N 43°16' E 006°37'0 0.0
2015-Jul-25 03:33N 43°16' E 006°37'0 0.0
2015-Jul-25 02:33N 43°16' E 006°37'0 0.0
2015-Jul-25 01:34N 43°16' E 006°37'0 0.0
2015-Jul-25 00:34N 43°16' E 006°37'0 0.0
2015-Jul-24 23:33N 43°16' E 006°37'0 0.0
2015-Jul-24 22:33N 43°16' E 006°37'0 0.0
2015-Jul-24 21:34N 43°16' E 006°37'0 0.0
2015-Jul-24 20:34N 43°16' E 006°37'0 0.0
2015-Jul-24 19:33N 43°16' E 006°37'3 3.4
2015-Jul-24 18:33N 43°17' E 006°41'4 3.7
2015-Jul-24 17:33N 43°14' E 006°40'0 0.0
2015-Jul-24 16:33N 43°14' E 006°40'0 0.0
2015-Jul-24 15:34N 43°14' E 006°40'0 0.0
2015-Jul-24 14:24N 43°14' E 006°40'0 0.0
2015-Jul-24 13:33N 43°14' E 006°40'0 0.0
2015-Jul-24 12:33N 43°14' E 006°40'0 0.0
2015-Jul-24 11:33N 43°14' E 006°40'0 0.0
2015-Jul-24 10:33N 43°14' E 006°40'0 0.4
2015-Jul-24 09:33N 43°14' E 006°41'1211.5
2015-Jul-24 08:32N 43°12' E 006°57'6 6.0
2015-Jul-24 07:33N 43°15' E 006°50'9 8.8
2015-Jul-24 06:34N 43°16' E 006°38'0 0.0
2015-Jul-24 05:33N 43°16' E 006°38'0 0.0
2015-Jul-24 04:33N 43°16' E 006°38'0 0.0
2015-Jul-24 03:34N 43°16' E 006°38'0 0.0
2015-Jul-24 02:34N 43°16' E 006°38'0 0.0
2015-Jul-24 01:33N 43°16' E 006°38'0 0.0
2015-Jul-24 00:33N 43°16' E 006°38'0 0.0
2015-Jul-23 23:33N 43°16' E 006°38'0 0.0
2015-Jul-23 22:34N 43°16' E 006°38'0 0.0
2015-Jul-23 21:33N 43°16' E 006°38'0 0.0
2015-Jul-23 20:33N 43°16' E 006°38'0 0.0
2015-Jul-23 19:33N 43°16' E 006°38'1 0.7
2015-Jul-23 18:32N 43°17' E 006°38'3 3.0
2015-Jul-23 17:33N 43°14' E 006°41'0 0.0
2015-Jul-23 16:32N 43°14' E 006°41'0 0.0
2015-Jul-23 15:32N 43°14' E 006°41'0 0.0
2015-Jul-23 14:33N 43°14' E 006°41'0 0.0
2015-Jul-23 13:30N 43°14' E 006°41'0 0.4
2015-Jul-23 12:30N 43°14' E 006°41'4 3.8
2015-Jul-23 11:33N 43°16' E 006°37'0 0.0
2015-Jul-23 10:34N 43°16' E 006°37'0 0.0
2015-Jul-23 09:33N 43°16' E 006°37'0 0.0
2015-Jul-23 08:32N 43°16' E 006°37'0 0.0
2015-Jul-22 20:25N 43°16' E 006°37'0 0.0
2015-Jul-22 19:33N 43°16' E 006°37'0 0.0
2015-Jul-22 18:33N 43°16' E 006°37'0 0.0
2015-Jul-22 17:33N 43°16' E 006°37'0 0.0
2015-Jul-22 16:33N 43°16' E 006°37'0 0.0
2015-Jul-22 15:32N 43°16' E 006°37'0 0.0
2015-Jul-22 14:33N 43°16' E 006°37'0 0.0
2015-Jul-22 13:31N 43°16' E 006°37'0 0.0
2015-Jul-22 12:33N 43°16' E 006°37'0 0.0
2015-Jul-22 11:33N 43°16' E 006°37'0 0.0
2015-Jul-22 10:33N 43°16' E 006°37'0 0.0
2015-Jul-22 09:33N 43°16' E 006°37'0 0.0
2015-Jul-22 08:33N 43°16' E 006°37'  
Track history (hours):
 
Tides and Currents Weather Stations Pressure Air Temp Water Temp Dewpoint Dewpoint Depression Visibility Wind Speed Wind Dir Waves Ship Positions

My Little Violet

Last reported at 2015-Aug-01 07:34 UTC. Time now 2015-Aug-01 07:49 UTC.
Position N 43°18' E 006°39'.

Length 45 m.

Type: Pleasure craft. MMSI: 319496000.

Date/timePositionNaut miles runAvg speedWind from/ knotsBaromVisibWave heightAir tempDewpointWater temp
2015-Aug-01 07:34N 43°18' E 006°39'2 1.9
2015-Aug-01 06:30N 43°16' E 006°40'0 0.0
2015-Aug-01 05:33N 43°16' E 006°40'0 0.0
2015-Jul-31 04:33N 43°16' E 006°40'0 0.0
2015-Jul-31 03:34N 43°16' E 006°40'0 0.0
2015-Jul-31 02:33N 43°16' E 006°40'0 0.0
2015-Jul-31 01:33N 43°16' E 006°40'0 0.0
2015-Jul-31 00:33N 43°16' E 006°40'0 0.0
2015-Jul-30 23:33N 43°16' E 006°40'0 0.0
2015-Jul-30 22:33N 43°16' E 006°40'0 0.0
2015-Jul-30 21:33N 43°16' E 006°40'0 0.0
2015-Jul-30 20:33N 43°16' E 006°40'0 0.0
2015-Jul-30 19:34N 43°16' E 006°40'0 0.0
2015-Jul-30 18:34N 43°16' E 006°40'0 0.0
2015-Jul-30 17:33N 43°16' E 006°40'0 0.0
2015-Jul-30 16:33N 43°16' E 006°40'0 0.0
2015-Jul-30 15:33N 43°16' E 006°40'0 0.0
2015-Jul-30 14:33N 43°16' E 006°40'0 0.0
2015-Jul-30 13:33N 43°16' E 006°40'0 0.0
2015-Jul-30 12:33N 43°16' E 006°40'3 2.6
2015-Jul-30 11:33N 43°16' E 006°36'0 0.0
2015-Jul-30 10:33N 43°16' E 006°36'0 0.0
2015-Jul-30 09:33N 43°16' E 006°36'10 8.3
2015-Jul-30 08:19N 43°14' E 006°50'7 9.6
2015-Jul-30 07:33N 43°11' E 006°59'1111.2
2015-Jul-30 06:33N 43°16' E 006°45'6 5.9
2015-Jul-30 05:33N 43°17' E 006°37'0 0.0
2015-Jul-30 04:33N 43°17' E 006°37'0 0.0
2015-Jul-30 03:33N 43°17' E 006°37'0 0.0
2015-Jul-30 02:33N 43°17' E 006°37'0 0.0
2015-Jul-30 01:33N 43°17' E 006°37'0 0.0
2015-Jul-30 00:34N 43°17' E 006°37'0 0.0
2015-Jul-29 23:33N 43°17' E 006°37'0 0.0
2015-Jul-29 22:33N 43°17' E 006°37'0 0.0
2015-Jul-29 21:33N 43°17' E 006°37'0 0.0
2015-Jul-29 20:33N 43°17' E 006°37'0 0.0
2015-Jul-29 19:33N 43°17' E 006°37'0 0.0
2015-Jul-29 18:32N 43°17' E 006°37'0 0.0
2015-Jul-29 17:33N 43°17' E 006°37'0 0.0
2015-Jul-29 16:33N 43°17' E 006°37'0 0.0
2015-Jul-29 15:33N 43°17' E 006°37'0 0.0
2015-Jul-29 14:33N 43°17' E 006°37'0 0.0
2015-Jul-29 13:33N 43°17' E 006°37'0 0.0
2015-Jul-29 12:33N 43°17' E 006°37'0 0.0
2015-Jul-29 11:33N 43°17' E 006°37'0 0.0
2015-Jul-29 10:33N 43°17' E 006°37'0 0.0
2015-Jul-29 09:33N 43°17' E 006°37'0 0.0
2015-Jul-28 20:31N 43°17' E 006°37'0 0.0
2015-Jul-28 19:34N 43°17' E 006°37'4 3.6
2015-Jul-28 18:33N 43°17' E 006°42'4 3.7
2015-Jul-28 17:33N 43°14' E 006°40'0 0.0
2015-Jul-28 16:33N 43°14' E 006°40'0 0.0
2015-Jul-28 15:33N 43°14' E 006°40'0 0.0
2015-Jul-28 14:33N 43°14' E 006°40'0 0.0
2015-Jul-28 13:34N 43°14' E 006°40'0 0.0
2015-Jul-28 12:33N 43°14' E 006°40'3 2.8
2015-Jul-28 11:34N 43°15' E 006°43'5 5.2
2015-Jul-28 10:33N 43°16' E 006°36'0 0.0
2015-Jul-28 09:34N 43°16' E 006°36'0 0.0
2015-Jul-27 21:33N 43°16' E 006°36'0 0.0
2015-Jul-27 20:33N 43°16' E 006°36'0 0.0
2015-Jul-27 19:33N 43°16' E 006°36'0 0.0
2015-Jul-27 18:33N 43°16' E 006°36'0 0.0
2015-Jul-27 17:33N 43°16' E 006°36'0 0.0
2015-Jul-27 16:33N 43°16' E 006°36'0 0.0
2015-Jul-27 15:34N 43°16' E 006°36'0 0.0
2015-Jul-27 14:33N 43°16' E 006°36'0 0.0
2015-Jul-27 13:33N 43°16' E 006°36'0 0.0
2015-Jul-27 12:33N 43°16' E 006°36'0 0.0
2015-Jul-27 11:33N 43°16' E 006°36'1 1.0
2015-Jul-27 10:33N 43°16' E 006°37'0 0.1
2015-Jul-27 09:34N 43°16' E 006°37'0 0.0
2015-Jul-27 08:33N 43°16' E 006°37'0 0.0
2015-Jul-27 07:33N 43°16' E 006°37'0 0.0
2015-Jul-26 21:04N 43°16' E 006°37'0 0.0
2015-Jul-26 20:33N 43°16' E 006°37'0 0.0
2015-Jul-26 19:34N 43°16' E 006°37'0 0.0
2015-Jul-26 18:33N 43°16' E 006°37'0 0.0
2015-Jul-26 17:32N 43°16' E 006°37'0 0.0
2015-Jul-26 16:33N 43°16' E 006°37'0 0.0
2015-Jul-26 15:33N 43°16' E 006°37'0 0.0
2015-Jul-26 14:33N 43°16' E 006°37'0 0.1
2015-Jul-26 13:33N 43°16' E 006°37'0 0.0
2015-Jul-26 12:33N 43°16' E 006°37'1 1.0
2015-Jul-26 11:33N 43°16' E 006°36'0 0.0
2015-Jul-26 10:30N 43°16' E 006°36'0 0.0
2015-Jul-26 09:33N 43°16' E 006°36'0 0.0
2015-Jul-26 08:33N 43°16' E 006°36'0 0.0
2015-Jul-26 07:33N 43°16' E 006°36'0 0.0
2015-Jul-26 06:33N 43°16' E 006°36'0 0.0
2015-Jul-26 05:33N 43°16' E 006°36'0 0.0
2015-Jul-26 04:33N 43°16' E 006°36'0 0.0
2015-Jul-26 03:34N 43°16' E 006°36'0 0.0
2015-Jul-26 02:33N 43°16' E 006°36'0 0.0
2015-Jul-26 01:34N 43°16' E 006°36'0 0.0
2015-Jul-26 00:33N 43°16' E 006°36'0 0.0
2015-Jul-25 23:33N 43°16' E 006°36'0 0.0
2015-Jul-25 22:34N 43°16' E 006°36'1 1.1
2015-Jul-25 21:34N 43°17' E 006°37'0 0.0
2015-Jul-25 20:33N 43°17' E 006°37'0 0.0
2015-Jul-25 19:33N 43°17' E 006°37'1 1.1
2015-Jul-25 18:33N 43°16' E 006°36'0 0.0
2015-Jul-25 17:32N 43°16' E 006°36'0 0.0
2015-Jul-25 16:33N 43°16' E 006°36'0 0.0
2015-Jul-25 15:33N 43°16' E 006°36'0 0.0
2015-Jul-25 14:34N 43°16' E 006°36'0 0.0
2015-Jul-25 13:33N 43°16' E 006°36'1 0.7
2015-Jul-25 12:33N 43°16' E 006°37'0 0.0
2015-Jul-25 11:33N 43°16' E 006°37'0 0.0
2015-Jul-25 10:33N 43°16' E 006°37'0 0.0
2015-Jul-25 09:34N 43°16' E 006°37'0 0.0
2015-Jul-25 08:32N 43°16' E 006°37'0 0.0
2015-Jul-25 07:33N 43°16' E 006°37'0 0.0
2015-Jul-25 06:32N 43°16' E 006°37'0 0.0
2015-Jul-25 05:34N 43°16' E 006°37'0 0.0
2015-Jul-25 04:34N 43°16' E 006°37'0 0.0
2015-Jul-25 03:33N 43°16' E 006°37'0 0.0
2015-Jul-25 02:33N 43°16' E 006°37'0 0.0
2015-Jul-25 01:34N 43°16' E 006°37'0 0.0
2015-Jul-25 00:34N 43°16' E 006°37'0 0.0
2015-Jul-24 23:33N 43°16' E 006°37'0 0.0
2015-Jul-24 22:33N 43°16' E 006°37'0 0.0
2015-Jul-24 21:34N 43°16' E 006°37'0 0.0
2015-Jul-24 20:34N 43°16' E 006°37'0 0.0
2015-Jul-24 19:33N 43°16' E 006°37'3 3.4
2015-Jul-24 18:33N 43°17' E 006°41'4 3.7
2015-Jul-24 17:33N 43°14' E 006°40'0 0.0
2015-Jul-24 16:33N 43°14' E 006°40'0 0.0
2015-Jul-24 15:34N 43°14' E 006°40'0 0.0
2015-Jul-24 14:24N 43°14' E 006°40'0 0.0
2015-Jul-24 13:33N 43°14' E 006°40'0 0.0
2015-Jul-24 12:33N 43°14' E 006°40'0 0.0
2015-Jul-24 11:33N 43°14' E 006°40'0 0.0
2015-Jul-24 10:33N 43°14' E 006°40'0 0.4
2015-Jul-24 09:33N 43°14' E 006°41'1211.5
2015-Jul-24 08:32N 43°12' E 006°57'6 6.0
2015-Jul-24 07:33N 43°15' E 006°50'9 8.8
2015-Jul-24 06:34N 43°16' E 006°38'0 0.0
2015-Jul-24 05:33N 43°16' E 006°38'0 0.0
2015-Jul-24 04:33N 43°16' E 006°38'0 0.0
2015-Jul-24 03:34N 43°16' E 006°38'0 0.0
2015-Jul-24 02:34N 43°16' E 006°38'0 0.0
2015-Jul-24 01:33N 43°16' E 006°38'0 0.0
2015-Jul-24 00:33N 43°16' E 006°38'0 0.0
2015-Jul-23 23:33N 43°16' E 006°38'0 0.0
2015-Jul-23 22:34N 43°16' E 006°38'0 0.0
2015-Jul-23 21:33N 43°16' E 006°38'0 0.0
2015-Jul-23 20:33N 43°16' E 006°38'0 0.0
2015-Jul-23 19:33N 43°16' E 006°38'1 0.7
2015-Jul-23 18:32N 43°17' E 006°38'3 3.0
2015-Jul-23 17:33N 43°14' E 006°41'0 0.0
2015-Jul-23 16:32N 43°14' E 006°41'0 0.0
2015-Jul-23 15:32N 43°14' E 006°41'0 0.0
2015-Jul-23 14:33N 43°14' E 006°41'0 0.0
2015-Jul-23 13:30N 43°14' E 006°41'0 0.4
2015-Jul-23 12:30N 43°14' E 006°41'4 3.8
2015-Jul-23 11:33N 43°16' E 006°37'0 0.0
2015-Jul-23 10:34N 43°16' E 006°37'0 0.0
2015-Jul-23 09:33N 43°16' E 006°37'0 0.0
2015-Jul-23 08:32N 43°16' E 006°37'0 0.0
2015-Jul-22 20:25N 43°16' E 006°37'0 0.0
2015-Jul-22 19:33N 43°16' E 006°37'0 0.0
2015-Jul-22 18:33N 43°16' E 006°37'0 0.0
2015-Jul-22 17:33N 43°16' E 006°37'0 0.0
2015-Jul-22 16:33N 43°16' E 006°37'0 0.0
2015-Jul-22 15:32N 43°16' E 006°37'0 0.0
2015-Jul-22 14:33N 43°16' E 006°37'0 0.0
2015-Jul-22 13:31N 43°16' E 006°37'0 0.0
2015-Jul-22 12:33N 43°16' E 006°37'0 0.0
2015-Jul-22 11:33N 43°16' E 006°37'0 0.0
2015-Jul-22 10:33N 43°16' E 006°37'0 0.0
2015-Jul-22 09:33N 43°16' E 006°37'0 0.0
2015-Jul-22 08:33N 43°16' E 006°37'  

Dump ship's entire track history